Horizon City, Texas
Current Conditions -  °F | °C
As of 6:40 AM on Friday 24 Oct 2014 (Local Time) from MMCS Reporting Station
Clear Clear  
Wind Chill: 59°   Ceiling: Unl
Heat Index: 59°   Visibility: 10mi
Dew Point: 43°   Wind: 0mph
Humidity: 55%   Direction: NA
Pressure: 30.16"   Gusts: NA
Location:  31.6697°N, 106.14°W
Report Text: MMCS 241240Z 00000KT 10SM SKC 15/06 A3016
Loading
Personal Weather Stations






























Interactive Weather Map
Tropical Storm Tracking
New forecast layout! Learn more

10-Day Weather Forecast

Advertisements
Track Severe Weather on mobile